sensor_id;sensor_type;location;lat;lon;timestamp;pressure;altitude;pressure_sealevel;temperature;humidity
74218;BME280;62579;47.288;18.646;2023-02-28T00:00:20;101005.97;;;1.04;63.30
74218;BME280;62579;47.288;18.646;2023-02-28T00:02:46;101008.69;;;1.01;63.63
74218;BME280;62579;47.288;18.646;2023-02-28T00:05:14;101011.69;;;1.06;62.64
74218;BME280;62579;47.288;18.646;2023-02-28T00:07:40;101014.34;;;1.06;62.86
74218;BME280;62579;47.288;18.646;2023-02-28T00:10:14;101016.63;;;1.08;62.87
74218;BME280;62579;47.288;18.646;2023-02-28T00:12:40;101022.38;;;1.10;63.12
74218;BME280;62579;47.288;18.646;2023-02-28T00:15:08;101022.72;;;1.12;62.72
74218;BME280;62579;47.288;18.646;2023-02-28T00:17:34;101021.25;;;1.07;62.85
74218;BME280;62579;47.288;18.646;2023-02-28T00:19:59;101029.59;;;1.13;62.88
74218;BME280;62579;47.288;18.646;2023-02-28T00:22:42;101029.63;;;1.09;63.26
74218;BME280;62579;47.288;18.646;2023-02-28T00:25:10;101034.25;;;1.09;64.31
74218;BME280;62579;47.288;18.646;2023-02-28T00:27:37;101035.00;;;1.09;63.80
74218;BME280;62579;47.288;18.646;2023-02-28T00:30:04;101036.63;;;1.00;64.42
74218;BME280;62579;47.288;18.646;2023-02-28T00:32:29;101048.78;;;1.08;64.41
74218;BME280;62579;47.288;18.646;2023-02-28T00:34:55;101041.13;;;1.10;64.31
74218;BME280;62579;47.288;18.646;2023-02-28T00:37:20;101043.41;;;1.11;64.10
74218;BME280;62579;47.288;18.646;2023-02-28T00:39:46;101051.84;;;1.10;64.13
74218;BME280;62579;47.288;18.646;2023-02-28T00:42:11;101044.84;;;1.16;63.49
74218;BME280;62579;47.288;18.646;2023-02-28T00:44:36;101040.69;;;1.15;63.58
74218;BME280;62579;47.288;18.646;2023-02-28T00:47:02;101037.56;;;1.16;63.93
74218;BME280;62579;47.288;18.646;2023-02-28T00:49:27;101040.25;;;1.16;63.98
74218;BME280;62579;47.288;18.646;2023-02-28T00:51:55;101040.63;;;1.18;63.36
74218;BME280;62579;47.288;18.646;2023-02-28T00:54:21;101038.75;;;1.15;64.21
74218;BME280;62579;47.288;18.646;2023-02-28T00:56:47;101040.69;;;1.15;64.58
74218;BME280;62579;47.288;18.646;2023-02-28T01:04:24;101040.63;;;1.18;62.50
74218;BME280;62579;47.288;18.646;2023-02-28T01:06:49;101038.75;;;1.15;62.98
74218;BME280;62579;47.288;18.646;2023-02-28T01:09:22;101037.13;;;1.21;63.01
74218;BME280;62579;47.288;18.646;2023-02-28T01:17:21;101041.06;;;1.13;63.77
74218;BME280;62579;47.288;18.646;2023-02-28T01:19:46;101046.38;;;1.17;63.85
74218;BME280;62579;47.288;18.646;2023-02-28T01:22:12;101034.91;;;1.16;63.89
74218;BME280;62579;47.288;18.646;2023-02-28T01:24:37;101036.91;;;1.09;64.24
74218;BME280;62579;47.288;18.646;2023-02-28T01:27:02;101043.72;;;1.17;62.94
74218;BME280;62579;47.288;18.646;2023-02-28T01:29:28;101038.34;;;1.17;63.31
74218;BME280;62579;47.288;18.646;2023-02-28T01:31:53;101039.50;;;1.16;62.99
74218;BME280;62579;47.288;18.646;2023-02-28T01:34:18;101043.72;;;1.17;63.19
74218;BME280;62579;47.288;18.646;2023-02-28T01:36:47;101034.09;;;1.19;63.05
74218;BME280;62579;47.288;18.646;2023-02-28T01:39:12;101042.56;;;1.18;62.95
74218;BME280;62579;47.288;18.646;2023-02-28T01:41:38;101034.91;;;1.16;63.54
74218;BME280;62579;47.288;18.646;2023-02-28T01:44:55;101038.69;;;1.19;62.99
74218;BME280;62579;47.288;18.646;2023-02-28T01:46:53;101045.62;;;1.16;63.51
74218;BME280;62579;47.288;18.646;2023-02-28T01:49:18;101046.75;;;1.19;63.31
74218;BME280;62579;47.288;18.646;2023-02-28T01:51:53;101039.63;;;1.05;63.58
74218;BME280;62579;47.288;18.646;2023-02-28T01:54:29;101033.53;;;1.05;63.34
74218;BME280;62579;47.288;18.646;2023-02-28T01:57:16;101038.16;;;1.01;63.76
74218;BME280;62579;47.288;18.646;2023-02-28T01:59:50;101030.94;;;0.98;64.05
74218;BME280;62579;47.288;18.646;2023-02-28T02:02:19;101030.84;;;1.05;64.37
74218;BME280;62579;47.288;18.646;2023-02-28T02:04:58;101036.56;;;1.07;64.56
74218;BME280;62579;47.288;18.646;2023-02-28T02:07:26;101034.13;;;1.16;63.86
74218;BME280;62579;47.288;18.646;2023-02-28T02:10:20;101038.44;;;1.10;64.52
74218;BME280;62579;47.288;18.646;2023-02-28T02:13:21;101031.09;;;1.14;64.08
74218;BME280;62579;47.288;18.646;2023-02-28T02:18:52;101031.09;;;1.14;63.45
74218;BME280;62579;47.288;18.646;2023-02-28T02:35:27;101031.03;;;1.21;62.93
74218;BME280;62579;47.288;18.646;2023-02-28T02:38:18;101033.34;;;1.19;62.79
74218;BME280;62579;47.288;18.646;2023-02-28T02:40:58;101036.47;;;1.14;62.51
74218;BME280;62579;47.288;18.646;2023-02-28T02:46:32;101028.47;;;1.10;62.84
74218;BME280;62579;47.288;18.646;2023-02-28T02:49:00;101031.06;;;1.17;62.84
74218;BME280;62579;47.288;18.646;2023-02-28T02:51:27;101029.09;;;1.21;63.36
74218;BME280;62579;47.288;18.646;2023-02-28T02:53:59;101034.91;;;1.16;63.66
74218;BME280;62579;47.288;18.646;2023-02-28T02:56:28;101030.25;;;1.20;63.47
74218;BME280;62579;47.288;18.646;2023-02-28T02:59:01;101032.28;;;1.13;63.68
74218;BME280;62579;47.288;18.646;2023-02-28T03:01:28;101033.44;;;1.12;63.92
74218;BME280;62579;47.288;18.646;2023-02-28T03:04:03;101032.97;;;1.17;63.94
74218;BME280;62579;47.288;18.646;2023-02-28T03:06:29;101026.84;;;1.16;63.87
74218;BME280;62579;47.288;18.646;2023-02-28T03:08:54;101036.09;;;1.15;64.22
74218;BME280;62579;47.288;18.646;2023-02-28T03:11:20;101034.91;;;1.16;63.91
74218;BME280;62579;47.288;18.646;2023-02-28T03:27:12;101034.88;;;1.20;64.13
74218;BME280;62579;47.288;18.646;2023-02-28T03:29:51;101032.88;;;1.24;64.72
74218;BME280;62579;47.288;18.646;2023-02-28T03:35:31;101034.09;;;1.19;65.71
74218;BME280;62579;47.288;18.646;2023-02-28T03:38:10;101029.84;;;1.22;64.49
74218;BME280;62579;47.288;18.646;2023-02-28T03:40:42;101027.94;;;1.23;64.82
74218;BME280;62579;47.288;18.646;2023-02-28T03:43:17;101041.00;;;1.20;65.69
74218;BME280;62579;47.288;18.646;2023-02-28T03:45:44;101031.41;;;1.19;65.51
74218;BME280;62579;47.288;18.646;2023-02-28T03:48:42;101032.22;;;1.16;65.36
74218;BME280;62579;47.288;18.646;2023-02-28T03:51:11;101033.81;;;1.10;65.54
74218;BME280;62579;47.288;18.646;2023-02-28T03:53:45;101035.34;;;1.11;65.74
74218;BME280;62579;47.288;18.646;2023-02-28T03:56:19;101026.59;;;1.07;66.53
74218;BME280;62579;47.288;18.646;2023-02-28T03:58:57;101032.78;;;1.04;65.08
74218;BME280;62579;47.288;18.646;2023-02-28T04:01:38;101035.47;;;1.01;65.72
74218;BME280;62579;47.288;18.646;2023-02-28T04:04:07;101025.66;;;0.91;68.38
74218;BME280;62579;47.288;18.646;2023-02-28T04:06:33;101034.09;;;0.89;69.55
74218;BME280;62579;47.288;18.646;2023-02-28T04:08:59;101029.94;;;0.85;70.90
74218;BME280;62579;47.288;18.646;2023-02-28T04:11:37;101037.66;;;0.79;71.83
74218;BME280;62579;47.288;18.646;2023-02-28T04:14:04;101039.22;;;0.77;71.96
74218;BME280;62579;47.288;18.646;2023-02-28T04:16:30;101036.94;;;0.75;71.50
74218;BME280;62579;47.288;18.646;2023-02-28T04:18:55;101038.19;;;0.67;72.67
74218;BME280;62579;47.288;18.646;2023-02-28T04:21:28;101037.34;;;0.74;73.18
74218;BME280;62579;47.288;18.646;2023-02-28T04:23:54;101033.19;;;0.69;74.29
74218;BME280;62579;47.288;18.646;2023-02-28T04:26:20;101036.69;;;0.62;75.10
74218;BME280;62579;47.288;18.646;2023-02-28T04:28:45;101034.34;;;0.68;75.13
74218;BME280;62579;47.288;18.646;2023-02-28T04:31:10;101028.97;;;0.68;75.36
74218;BME280;62579;47.288;18.646;2023-02-28T04:33:36;101038.56;;;0.66;75.69
74218;BME280;62579;47.288;18.646;2023-02-28T04:36:04;101031.59;;;0.75;75.26
74218;BME280;62579;47.288;18.646;2023-02-28T04:38:33;101019.78;;;0.69;75.86
74218;BME280;62579;47.288;18.646;2023-02-28T04:40:59;101027.84;;;0.66;75.69
74218;BME280;62579;47.288;18.646;2023-02-28T04:43:29;101032.00;;;0.70;74.54
74218;BME280;62579;47.288;18.646;2023-02-28T04:45:55;101035.22;;;0.58;74.56
74218;BME280;62579;47.288;18.646;2023-02-28T04:48:25;101034.41;;;0.61;74.34
74218;BME280;62579;47.288;18.646;2023-02-28T04:50:51;101029.06;;;0.61;73.25
74218;BME280;62579;47.288;18.646;2023-02-28T04:53:16;101040.22;;;0.56;72.68
74218;BME280;62579;47.288;18.646;2023-02-28T04:55:42;101037.09;;;0.61;71.49
74218;BME280;62579;47.288;18.646;2023-02-28T04:58:07;101030.97;;;0.60;70.40
74218;BME280;62579;47.288;18.646;2023-02-28T05:00:33;101033.25;;;0.62;70.75
74218;BME280;62579;47.288;18.646;2023-02-28T05:02:58;101046.69;;;0.58;71.26
74218;BME280;62579;47.288;18.646;2023-02-28T05:05:23;101034.44;;;0.57;70.34
74218;BME280;62579;47.288;18.646;2023-02-28T05:07:48;101038.25;;;0.60;71.08
74218;BME280;62579;47.288;18.646;2023-02-28T05:10:14;101033.69;;;0.57;72.50
74218;BME280;62579;47.288;18.646;2023-02-28T05:12:39;101032.88;;;0.60;72.42
74218;BME280;62579;47.288;18.646;2023-02-28T05:15:05;101037.09;;;0.61;72.27
74218;BME280;62579;47.288;18.646;2023-02-28T05:17:31;101032.44;;;0.65;72.16
74218;BME280;62579;47.288;18.646;2023-02-28T05:19:56;101034.69;;;0.70;69.64
74218;BME280;62579;47.288;18.646;2023-02-28T05:22:22;101032.31;;;0.76;69.45
74218;BME280;62579;47.288;18.646;2023-02-28T05:24:47;101028.22;;;0.68;69.41
74218;BME280;62579;47.288;18.646;2023-02-28T05:27:12;101030.53;;;0.66;69.28
74218;BME280;62579;47.288;18.646;2023-02-28T05:29:38;101034.00;;;0.62;69.83
74218;BME280;62579;47.288;18.646;2023-02-28T05:32:11;101035.12;;;0.65;70.26
74218;BME280;62579;47.288;18.646;2023-02-28T05:34:41;101045.38;;;0.74;70.59
74218;BME280;62579;47.288;18.646;2023-02-28T05:37:11;101052.62;;;0.73;70.57
74218;BME280;62579;47.288;18.646;2023-02-28T05:39:38;101055.41;;;0.66;71.27
74218;BME280;62579;47.288;18.646;2023-02-28T05:42:04;101053.16;;;0.61;72.02
74218;BME280;62579;47.288;18.646;2023-02-28T05:44:29;101064.97;;;0.67;72.57
74218;BME280;62579;47.288;18.646;2023-02-28T05:46:55;101054.31;;;0.60;73.73
74218;BME280;62579;47.288;18.646;2023-02-28T05:49:20;101066.19;;;0.59;74.34
74218;BME280;62579;47.288;18.646;2023-02-28T05:51:46;101064.34;;;0.52;74.88
74218;BME280;62579;47.288;18.646;2023-02-28T05:54:11;101064.44;;;0.42;74.69
74218;BME280;62579;47.288;18.646;2023-02-28T05:56:36;101060.22;;;0.44;74.32
74218;BME280;62579;47.288;18.646;2023-02-28T05:59:05;101064.09;;;0.40;73.39
74218;BME280;62579;47.288;18.646;2023-02-28T06:03:58;101062.81;;;0.51;72.01
74218;BME280;62579;47.288;18.646;2023-02-28T06:06:25;101062.47;;;0.49;72.34
74218;BME280;62579;47.288;18.646;2023-02-28T06:08:50;101073.94;;;0.50;72.75
74218;BME280;62579;47.288;18.646;2023-02-28T06:11:15;101074.00;;;0.43;73.26
74218;BME280;62579;47.288;18.646;2023-02-28T06:13:41;101076.72;;;0.39;73.76
74218;BME280;62579;47.288;18.646;2023-02-28T06:16:09;101075.88;;;0.46;72.94
74218;BME280;62579;47.288;18.646;2023-02-28T06:18:35;101070.94;;;0.44;72.64
74218;BME280;62579;47.288;18.646;2023-02-28T06:21:00;101073.25;;;0.42;72.86
74218;BME280;62579;47.288;18.646;2023-02-28T06:23:26;101073.34;;;0.32;73.11
74218;BME280;62579;47.288;18.646;2023-02-28T06:25:51;101079.78;;;0.38;72.87
74218;BME280;62579;47.288;18.646;2023-02-28T06:28:18;101084.66;;;0.46;72.35
74218;BME280;62579;47.288;18.646;2023-02-28T06:30:43;101089.34;;;0.35;72.46
74218;BME280;62579;47.288;18.646;2023-02-28T06:33:08;101087.06;;;0.37;71.27
74218;BME280;62579;47.288;18.646;2023-02-28T06:35:34;101080.44;;;0.49;71.85
74218;BME280;62579;47.288;18.646;2023-02-28T06:37:59;101076.72;;;0.39;71.54
74218;BME280;62579;47.288;18.646;2023-02-28T06:40:24;101089.78;;;0.34;71.66
74218;BME280;62579;47.288;18.646;2023-02-28T06:42:50;101085.53;;;0.36;71.80
74218;BME280;62579;47.288;18.646;2023-02-28T06:45:15;101082.94;;;0.29;72.34
74218;BME280;62579;47.288;18.646;2023-02-28T06:47:41;101088.56;;;0.38;72.53
74218;BME280;62579;47.288;18.646;2023-02-28T06:50:09;101094.63;;;0.46;72.38
74218;BME280;62579;47.288;18.646;2023-02-28T06:52:34;101093.03;;;0.52;72.25
74218;BME280;62579;47.288;18.646;2023-02-28T06:55:03;101098.03;;;0.50;72.44
74218;BME280;62579;47.288;18.646;2023-02-28T06:57:30;101097.16;;;0.64;71.84
74218;BME280;62579;47.288;18.646;2023-02-28T06:59:59;101096.28;;;0.74;71.13
74218;BME280;62579;47.288;18.646;2023-02-28T07:02:25;101098.94;;;0.77;71.50
74218;BME280;62579;47.288;18.646;2023-02-28T07:04:51;101101.78;;;0.97;69.87
74218;BME280;62579;47.288;18.646;2023-02-28T07:07:16;101105.53;;;1.03;68.22
74218;BME280;62579;47.288;18.646;2023-02-28T07:09:41;101102.38;;;1.11;67.26
74218;BME280;62579;47.288;18.646;2023-02-28T07:12:07;101108.06;;;1.17;66.51
74218;BME280;62579;47.288;18.646;2023-02-28T07:14:32;101106.62;;;1.39;65.90
74218;BME280;62579;47.288;18.646;2023-02-28T07:16:57;101108.97;;;1.37;66.10
74218;BME280;62579;47.288;18.646;2023-02-28T07:19:23;101113.34;;;1.54;65.36
74218;BME280;62579;47.288;18.646;2023-02-28T07:21:48;101109.84;;;1.57;64.99
74218;BME280;62579;47.288;18.646;2023-02-28T07:24:14;101108.59;;;1.65;64.49
74218;BME280;62579;47.288;18.646;2023-02-28T07:26:43;101121.66;;;1.90;63.52
74218;BME280;62579;47.288;18.646;2023-02-28T07:29:08;101110.16;;;1.90;62.72
74218;BME280;62579;47.288;18.646;2023-02-28T07:31:33;101123.69;;;2.09;61.47
74218;BME280;62579;47.288;18.646;2023-02-28T07:33:59;101129.81;;;2.10;61.12
74218;BME280;62579;47.288;18.646;2023-02-28T07:36:24;101129.34;;;2.15;61.29
74218;BME280;62579;47.288;18.646;2023-02-28T07:38:49;101122.50;;;2.10;61.91
74218;BME280;62579;47.288;18.646;2023-02-28T07:41:16;101124.87;;;2.05;61.63
74218;BME280;62579;47.288;18.646;2023-02-28T07:43:41;101114.66;;;2.23;61.31
74218;BME280;62579;47.288;18.646;2023-02-28T07:46:09;101120.44;;;2.45;61.05
74218;BME280;62579;47.288;18.646;2023-02-28T07:48:35;101126.84;;;2.51;59.31
74218;BME280;62579;47.288;18.646;2023-02-28T07:51:01;101117.97;;;2.54;57.77
74218;BME280;62579;47.288;18.646;2023-02-28T07:53:27;101123.81;;;2.49;57.88
74218;BME280;62579;47.288;18.646;2023-02-28T07:55:57;101122.28;;;2.71;58.79
74218;BME280;62579;47.288;18.646;2023-02-28T07:58:23;101120.47;;;2.64;59.33
74218;BME280;62579;47.288;18.646;2023-02-28T08:00:49;101122.47;;;2.80;58.54
74218;BME280;62579;47.288;18.646;2023-02-28T08:03:18;101117.09;;;2.80;58.20
74218;BME280;62579;47.288;18.646;2023-02-28T08:05:43;101110.91;;;2.83;57.15
74218;BME280;62579;47.288;18.646;2023-02-28T08:08:09;101099.06;;;3.00;57.08
74218;BME280;62579;47.288;18.646;2023-02-28T08:10:36;101104.03;;;2.82;58.26
74218;BME280;62579;47.288;18.646;2023-02-28T08:13:01;101103.91;;;3.09;54.84
74218;BME280;62579;47.288;18.646;2023-02-28T08:15:27;101106.81;;;2.98;55.64
74218;BME280;62579;47.288;18.646;2023-02-28T08:17:52;101104.03;;;3.01;55.56
74218;BME280;62579;47.288;18.646;2023-02-28T08:20:17;101100.59;;;3.21;56.92
74218;BME280;62579;47.288;18.646;2023-02-28T08:22:43;101104.97;;;2.72;56.43
74218;BME280;62579;47.288;18.646;2023-02-28T08:25:08;101104.03;;;3.01;56.96
74218;BME280;62579;47.288;18.646;2023-02-28T08:27:34;101109.84;;;3.00;56.77
74218;BME280;62579;47.288;18.646;2023-02-28T08:30:00;101105.69;;;2.95;58.06
74218;BME280;62579;47.288;18.646;2023-02-28T08:32:25;101111.22;;;3.08;56.60
74218;BME280;62579;47.288;18.646;2023-02-28T08:34:51;101112.25;;;3.14;56.58
74218;BME280;62579;47.288;18.646;2023-02-28T08:37:16;101116.38;;;3.19;58.94
74218;BME280;62579;47.288;18.646;2023-02-28T08:39:41;101111.16;;;3.12;57.68
74218;BME280;62579;47.288;18.646;2023-02-28T08:42:07;101112.25;;;3.14;58.17
74218;BME280;62579;47.288;18.646;2023-02-28T08:44:32;101116.78;;;3.37;57.89
74218;BME280;62579;47.288;18.646;2023-02-28T08:46:58;101116.56;;;3.47;58.76
74218;BME280;62579;47.288;18.646;2023-02-28T08:49:23;101119.03;;;3.58;58.61
74218;BME280;62579;47.288;18.646;2023-02-28T08:51:48;101118.84;;;3.49;59.01
74218;BME280;62579;47.288;18.646;2023-02-28T08:54:14;101113.88;;;3.47;58.66
74218;BME280;62579;47.288;18.646;2023-02-28T08:56:45;101123.06;;;3.66;58.53
74218;BME280;62579;47.288;18.646;2023-02-28T08:59:10;101113.94;;;3.80;58.22
74218;BME280;62579;47.288;18.646;2023-02-28T09:01:35;101106.56;;;3.84;56.77
74218;BME280;62579;47.288;18.646;2023-02-28T09:04:01;101114.34;;;3.42;57.53
74218;BME280;62579;47.288;18.646;2023-02-28T09:06:28;101111.53;;;3.49;57.15
74218;BME280;62579;47.288;18.646;2023-02-28T09:08:57;101111.09;;;3.51;56.53
74218;BME280;62579;47.288;18.646;2023-02-28T09:11:23;101110.47;;;3.63;56.64
74218;BME280;62579;47.288;18.646;2023-02-28T09:13:49;101101.78;;;3.55;56.87
74218;BME280;62579;47.288;18.646;2023-02-28T09:16:15;101103.84;;;3.84;57.89
74218;BME280;62579;47.288;18.646;2023-02-28T09:18:41;101102.19;;;3.90;57.22
74218;BME280;62579;47.288;18.646;2023-02-28T09:21:11;101105.03;;;3.99;57.62
74218;BME280;62579;47.288;18.646;2023-02-28T09:23:40;101097.97;;;4.21;56.52
74218;BME280;62579;47.288;18.646;2023-02-28T09:26:06;101092.91;;;4.23;61.28
74218;BME280;62579;47.288;18.646;2023-02-28T09:28:32;101099.31;;;4.13;55.42
74218;BME280;62579;47.288;18.646;2023-02-28T09:30:57;101099.91;;;4.04;55.57
74218;BME280;62579;47.288;18.646;2023-02-28T09:33:24;101109.84;;;4.40;52.96
74218;BME280;62579;47.288;18.646;2023-02-28T09:35:51;101099.41;;;4.25;53.31
74218;BME280;62579;47.288;18.646;2023-02-28T09:38:22;101087.69;;;4.48;53.46
74218;BME280;62579;47.288;18.646;2023-02-28T09:40:53;101100.44;;;4.60;54.12
74218;BME280;62579;47.288;18.646;2023-02-28T09:43:23;101097.78;;;4.28;54.38
74218;BME280;62579;47.288;18.646;2023-02-28T09:45:59;101103.19;;;4.28;54.32
74218;BME280;62579;47.288;18.646;2023-02-28T09:48:35;101102.66;;;4.49;54.87
74218;BME280;62579;47.288;18.646;2023-02-28T09:51:05;101086.41;;;4.53;54.20
74218;BME280;62579;47.288;18.646;2023-02-28T09:53:36;101099.38;;;4.87;54.46
74218;BME280;62579;47.288;18.646;2023-02-28T09:56:08;101098.00;;;4.95;54.73
74218;BME280;62579;47.288;18.646;2023-02-28T09:58:42;101095.06;;;5.18;52.45
74218;BME280;62579;47.288;18.646;2023-02-28T10:04:00;101087.16;;;5.11;52.56
74218;BME280;62579;47.288;18.646;2023-02-28T10:06:31;101086.06;;;5.08;51.72
74218;BME280;62579;47.288;18.646;2023-02-28T10:09:00;101082.00;;;5.16;51.72
74218;BME280;62579;47.288;18.646;2023-02-28T10:11:27;101088.78;;;5.21;52.65
74218;BME280;62579;47.288;18.646;2023-02-28T10:19:40;101085.75;;;4.77;53.63
74218;BME280;62579;47.288;18.646;2023-02-28T10:22:19;101089.97;;;5.20;53.01
74218;BME280;62579;47.288;18.646;2023-02-28T10:24:48;101091.53;;;4.92;53.74
74218;BME280;62579;47.288;18.646;2023-02-28T10:27:25;101090.34;;;5.34;53.23
74218;BME280;62579;47.288;18.646;2023-02-28T10:30:01;101091.66;;;5.68;52.45
74218;BME280;62579;47.288;18.646;2023-02-28T10:32:29;101080.44;;;5.57;52.89
74218;BME280;62579;47.288;18.646;2023-02-28T10:37:45;101082.59;;;5.62;52.72
74218;BME280;62579;47.288;18.646;2023-02-28T10:42:55;101070.69;;;6.10;49.76
74218;BME280;62579;47.288;18.646;2023-02-28T11:09:04;101061.19;;;5.55;52.29
74218;BME280;62579;47.288;18.646;2023-02-28T11:11:42;101054.37;;;5.37;52.36
74218;BME280;62579;47.288;18.646;2023-02-28T11:14:18;101069.28;;;5.55;51.78
74218;BME280;62579;47.288;18.646;2023-02-28T11:16:44;101060.78;;;5.94;50.26
74218;BME280;62579;47.288;18.646;2023-02-28T11:19:19;101056.41;;;6.09;50.75
74218;BME280;62579;47.288;18.646;2023-02-28T11:21:55;101051.31;;;6.11;49.37
74218;BME280;62579;47.288;18.646;2023-02-28T11:27:01;101044.84;;;6.09;49.30
74218;BME280;62579;47.288;18.646;2023-02-28T11:29:30;101045.47;;;6.25;49.60
74218;BME280;62579;47.288;18.646;2023-02-28T11:32:19;101050.19;;;5.87;51.38
74218;BME280;62579;47.288;18.646;2023-02-28T11:34:46;101043.94;;;6.24;50.94
74218;BME280;62579;47.288;18.646;2023-02-28T11:37:15;101036.47;;;6.28;50.25
74218;BME280;62579;47.288;18.646;2023-02-28T11:39:41;101036.69;;;6.34;51.23
74218;BME280;62579;47.288;18.646;2023-02-28T11:42:26;101031.69;;;6.67;52.20
74218;BME280;62579;47.288;18.646;2023-02-28T11:48:04;101025.31;;;6.82;51.05
74218;BME280;62579;47.288;18.646;2023-02-28T11:56:24;101020.53;;;6.64;50.75
74218;BME280;62579;47.288;18.646;2023-02-28T12:01:26;101007.81;;;6.31;50.27
74218;BME280;62579;47.288;18.646;2023-02-28T12:08:15;100994.13;;;6.69;49.76
74218;BME280;62579;47.288;18.646;2023-02-28T12:10:21;100998.53;;;6.53;50.00
74218;BME280;62579;47.288;18.646;2023-02-28T12:32:09;100972.47;;;7.30;51.67
74218;BME280;62579;47.288;18.646;2023-02-28T12:34:39;100974.31;;;7.02;50.62
74218;BME280;62579;47.288;18.646;2023-02-28T12:37:15;100969.56;;;6.85;50.06
74218;BME280;62579;47.288;18.646;2023-02-28T12:39:50;100966.47;;;7.26;51.00
74218;BME280;62579;47.288;18.646;2023-02-28T12:42:24;100960.31;;;6.73;50.64
74218;BME280;62579;47.288;18.646;2023-02-28T12:45:17;100963.44;;;6.62;50.91
74218;BME280;62579;47.288;18.646;2023-02-28T12:47:48;100968.06;;;6.84;50.77
74218;BME280;62579;47.288;18.646;2023-02-28T12:50:16;100963.41;;;6.84;51.66
74218;BME280;62579;47.288;18.646;2023-02-28T12:52:56;100965.09;;;6.91;49.71
74218;BME280;62579;47.288;18.646;2023-02-28T13:00:33;100956.13;;;7.03;49.37
74218;BME280;62579;47.288;18.646;2023-02-28T13:06:21;100951.59;;;7.00;50.47
74218;BME280;62579;47.288;18.646;2023-02-28T13:14:26;100938.81;;;7.40;50.21
74218;BME280;62579;47.288;18.646;2023-02-28T13:20:00;100930.31;;;8.05;63.09
74218;BME280;62579;47.288;18.646;2023-02-28T13:24:55;100931.22;;;8.02;48.31
74218;BME280;62579;47.288;18.646;2023-02-28T13:27:40;100924.72;;;7.72;49.95
74218;BME280;62579;47.288;18.646;2023-02-28T13:38:51;100930.62;;;7.22;50.49
74218;BME280;62579;47.288;18.646;2023-02-28T13:44:21;100921.25;;;7.45;51.06
74218;BME280;62579;47.288;18.646;2023-02-28T13:49:23;100924.66;;;7.45;50.51
74218;BME280;62579;47.288;18.646;2023-02-28T13:51:54;100921.97;;;7.36;52.44
74218;BME280;62579;47.288;18.646;2023-02-28T14:35:24;100913.84;;;6.65;52.97
74218;BME280;62579;47.288;18.646;2023-02-28T14:37:53;100908.69;;;6.89;52.76
74218;BME280;62579;47.288;18.646;2023-02-28T14:40:30;100916.16;;;7.07;51.37
74218;BME280;62579;47.288;18.646;2023-02-28T14:43:03;100917.75;;;6.95;53.16
74218;BME280;62579;47.288;18.646;2023-02-28T14:45:31;100917.09;;;6.82;51.79
74218;BME280;62579;47.288;18.646;2023-02-28T14:47:58;100917.12;;;6.60;51.85
74218;BME280;62579;47.288;18.646;2023-02-28T14:50:31;100911.47;;;6.68;53.09
74218;BME280;62579;47.288;18.646;2023-02-28T14:52:57;100910.03;;;6.85;52.96
74218;BME280;62579;47.288;18.646;2023-02-28T14:55:32;100908.69;;;6.89;52.17
74218;BME280;62579;47.288;18.646;2023-02-28T14:58:02;100906.28;;;6.82;51.96
74218;BME280;62579;47.288;18.646;2023-02-28T15:00:31;100905.16;;;7.01;51.79
74218;BME280;62579;47.288;18.646;2023-02-28T15:02:58;100908.88;;;6.86;52.29
74218;BME280;62579;47.288;18.646;2023-02-28T15:05:34;100907.44;;;6.72;52.73
74218;BME280;62579;47.288;18.646;2023-02-28T15:08:15;100907.69;;;6.65;53.28
74218;BME280;62579;47.288;18.646;2023-02-28T15:10:49;100909.88;;;6.79;52.77
74218;BME280;62579;47.288;18.646;2023-02-28T15:13:16;100903.66;;;6.70;52.62
74218;BME280;62579;47.288;18.646;2023-02-28T15:20:47;100899.72;;;6.61;53.95
74218;BME280;62579;47.288;18.646;2023-02-28T15:23:14;100903.53;;;6.73;54.24
74218;BME280;62579;47.288;18.646;2023-02-28T15:25:41;100911.72;;;6.60;53.82
74218;BME280;62579;47.288;18.646;2023-02-28T15:28:14;100913.09;;;6.65;54.49
74218;BME280;62579;47.288;18.646;2023-02-28T15:30:54;100909.62;;;6.34;52.46
74218;BME280;62579;47.288;18.646;2023-02-28T15:33:28;100912.19;;;6.37;53.55
74218;BME280;62579;47.288;18.646;2023-02-28T15:36:29;100912.56;;;6.27;53.78
74218;BME280;62579;47.288;18.646;2023-02-28T15:38:54;100910.94;;;6.29;54.39
74218;BME280;62579;47.288;18.646;2023-02-28T15:41:49;100905.09;;;6.31;54.63
74218;BME280;62579;47.288;18.646;2023-02-28T15:44:26;100898.47;;;6.53;54.41
74218;BME280;62579;47.288;18.646;2023-02-28T15:46:58;100896.19;;;6.52;54.68
74218;BME280;62579;47.288;18.646;2023-02-28T15:49:24;100895.78;;;6.32;54.79
74218;BME280;62579;47.288;18.646;2023-02-28T15:51:51;100897.78;;;6.19;54.85
74218;BME280;62579;47.288;18.646;2023-02-28T15:54:24;100895.47;;;6.30;56.09
74218;BME280;62579;47.288;18.646;2023-02-28T15:56:53;100901.25;;;6.41;55.95
74218;BME280;62579;47.288;18.646;2023-02-28T15:59:21;100904.13;;;6.25;57.09
74218;BME280;62579;47.288;18.646;2023-02-28T16:02:02;100906.03;;;6.15;57.98
74218;BME280;62579;47.288;18.646;2023-02-28T16:04:27;100902.75;;;6.20;57.54
74218;BME280;62579;47.288;18.646;2023-02-28T16:09:25;100905.06;;;5.87;58.68
74218;BME280;62579;47.288;18.646;2023-02-28T16:11:54;100907.09;;;5.96;59.09
74218;BME280;62579;47.288;18.646;2023-02-28T16:14:21;100907.28;;;6.01;58.88
74218;BME280;62579;47.288;18.646;2023-02-28T16:16:50;100910.56;;;5.96;59.23
74218;BME280;62579;47.288;18.646;2023-02-28T16:19:16;100912.63;;;5.80;59.48
74218;BME280;62579;47.288;18.646;2023-02-28T16:21:42;100915.63;;;5.94;58.65
74218;BME280;62579;47.288;18.646;2023-02-28T16:24:07;100914.87;;;5.81;59.50
74218;BME280;62579;47.288;18.646;2023-02-28T16:26:33;100918.28;;;5.73;59.77